Terminal Aerodrome Forecast
Issued by NWS Binghamton, NY

Home | Current Version | Previous Version | Text Only | Print | Product List | Glossary On
Versions: 1 2 3 4 5 6 7 8 9 10 11 12 13 14 15 16 17 18 19 20 21 22
000
FTUS41 KBGM 012300
TAFAVP
TAF
KAVP 012339Z 0200/0224 VRB03KT P6SM SCT050 BKN150
     FM020600 VRB03KT P6SM SCT025 BKN045
      TEMPO 0209/0213 4SM -SHRA BR OVC025
     FM021500 20006KT P6SM BKN040=

USA.gov is the U.S. government's official web portal to all federal, state and local government web resources and services.